• Join FlightAware (Why Join?)
  • Login
  • US Flag 
09:40PM EST


 

Airport Tracker/Info


-or-


 

Live Flight TrackerFlight Track Log ✈ N904ER ✈ 17-May-2013 ✈ KVRB - KDAB

Flight Track Log - Related Links

Times and Time Zones

All times are in EDT time to prevent confusion due to time zone crossing. See the N904ER flight status page for this flight to view local times or setup timezone preferences in your user account.

Time Position Orientation Groundspeed Altitude Reporting Facility
EDT Latitude Longitude Course Direction KTS MPH feet Rate Location/Type
11:42PM 27.7178 -80.4247 298° West 134 154 2,600  Level Miami Center
11:44PM 27.7833 -80.4500 341° North 134 154 4,000 660 Climbing Orlando TRACON
11:45PM 27.8167 -80.4667 336° Northwest 129 148 4,600 660 Climbing Orlando TRACON
11:46PM 27.8500 -80.5000 319° Northwest 130 150 5,400 720 Climbing Orlando TRACON
11:47PM 27.8833 -80.5167 336° Northwest 127 146 6,100 660 Climbing Orlando TRACON
11:48PM 27.9167 -80.5333 336° Northwest 125 144 6,800 480 Climbing Orlando TRACON
11:49PM 27.9500 -80.5500 336° Northwest 129 148 7,100 120 Climbing Orlando TRACON
11:50PM 27.9833 -80.5667 336° Northwest 146 168 7,100 -60 Level Orlando TRACON
11:51PM 28.0167 -80.5833 336° Northwest 151 174 7,000 -60 Descending Orlando TRACON
11:52PM 28.0500 -80.6000 336° Northwest 150 173 7,000  Level Orlando TRACON
11:53PM 28.1000 -80.6333 330° Northwest 150 173 7,000  Level Orlando TRACON
11:54PM 28.1333 -80.6500 336° Northwest 152 175 7,000  Level Orlando TRACON
11:55PM 28.1667 -80.6667 336° Northwest 153 176 7,000  Level Orlando TRACON
11:56PM 28.2167 -80.6833 344° North 153 176 7,000  Level Orlando TRACON
11:57PM 28.2500 -80.7000 336° Northwest 152 175 7,000  Level Orlando TRACON
11:58PM 28.2833 -80.7000 360° North 151 174 7,000  Level Orlando TRACON
11:59PM 28.3333 -80.7333 330° Northwest 149 171 7,000  Level Orlando TRACON
12:00AM 28.3667 -80.7333 360° North 151 174 7,000  Level Orlando TRACON
12:01AM 28.4167 -80.7500 344° North 151 174 7,000  Level Orlando TRACON
12:02AM 28.4500 -80.7667 336° Northwest 152 175 7,000  Level Orlando TRACON
12:03AM 28.5000 -80.7833 344° North 151 174 7,000  Level Orlando TRACON
12:04AM 28.5333 -80.8000 336° Northwest 151 174 7,000 -60 Level Orlando TRACON
12:05AM 28.5667 -80.8167 336° Northwest 153 176 6,900 -360 Descending Orlando TRACON
12:07AM 28.6167 -80.8333 344° North 167 192 6,300 -660 Descending Orlando TRACON
12:08AM 28.6667 -80.8500 344° North 168 193 5,600 -660 Descending Orlando TRACON
12:09AM 28.7000 -80.8667 336° Northwest 169 194 5,000 -240 Descending Orlando TRACON
12:10AM 28.7753 -80.9053 336° Northwest 151 174 5,000  Level Jacksonville Center
12:11AM 28.8172 -80.9211 342° North 149 171 5,000  Level Jacksonville Center
12:12AM 28.8572 -80.9369 341° North 151 174 5,000  Level Jacksonville Center
12:13AM 28.8969 -80.9503 344° North 152 175 5,000 -120 Level Jacksonville Center
12:14AM 28.9369 -80.9708 336° Northwest 152 175 4,800 -420 Descending Jacksonville Center
12:15AM 28.9606 -81.0156 301° West 171 197 4,200 -660 Descending Jacksonville Center
12:16AM 28.9842 -81.0603 301° West 172 198 3,500 -660 Descending Jacksonville Center
12:17AM 29.0142 -81.1069 306° West 176 203 2,900 -720 Descending Jacksonville Center
12:18AM 29.0419 -81.1564 303° West 184 212 2,100 -480 Descending Jacksonville Center
12:19AM 29.0717 -81.2033 306° West 172 198 2,000 -180 Descending Jacksonville Center
12:20AM 29.1033 -81.2339 320° Northwest 153 176 1,800 -180 Descending Jacksonville Center
12:21AM 29.1261 -81.2072 46° Northeast 106 122 1,700 -60 Descending Jacksonville Center
12:22AM 29.1361 -81.1761 70° East 91 105 1,700 -120 Level Jacksonville Center
12:23AM 29.1461 -81.1500 66° East 99 114 1,500 -420 Descending Jacksonville Center
12:24AM 29.1561 -81.1189 70° East 105 121 900 -600 Descending Jacksonville Center
12:26AM 29.1640 -81.0672 80° East  Level FlightAware Approximate
12:33AM 29.1667 -81.0500 67° East  Level FlightAware Approximate
12:34AM 29.1799 -81.0581 67° East  Level Estimated
12:35AM 29.1799 -81.0581 67° East  Level Estimated
12:36AM 29.1799 -81.0581 67° East  Level Estimated